Aérodrome :
LOGIN :

S'inscrire | Disclaimer

   EN    FR    IT 

 










Légende :    VFR   VFR Marginal   IFR   IFR Intensif   IFR Très Intensif
Visi : 
Plafond : 
>= 8 km
>= 3000ft
5 à 8 km
1000 à 3000 ft
1500m à 5 km
500 à 1000 ft
800 à 1500m
200 à 500 ft
< 800m
< 200 ft
Symboles :   Orages  Brouillard  Fortes neiges  Fortes précipitations  Vent > 20 kt
SIGMETs :   Divers  Orages  Givrage  Turbulence  Onde Orograph.  Cendres Volcan.







- Altitude de l'aérodrome : 622 ft
- Code IATA : BRS
- Voir les cartes d'approche


EGGD - Bristol Int.

DERNIER METAR :
  • 181450Z AUTO 27016KT 9999 FEW028 20/11 Q1012

METARs EXPIRÉS :
  • 181420Z AUTO 25012KT 9999 FEW027 SCT049 19/11 Q1012
  • 181350Z AUTO 27015KT 9999 FEW024 BKN049 19/12 Q1012
  • 181320Z AUTO 25012KT 9999 FEW028 SCT046 19/11 Q1012
  • 181250Z AUTO 27014KT 240V300 9999 FEW026 SCT049 19/11 Q1012
  • 181220Z AUTO 27012KT 9999 SCT021 18/12 Q1012

TAF TAF EGGD
Valide du 18 à 12h jusqu'au 19 à 12h UTC


181056Z 1812/1912 26012KT 9999 SCT020
BECMG 1821/1824 20003KT
BECMG 1904/1907 19013KT BKN012
TEMPO 1904/1912 7000 RA BKN009
PROB40
TEMPO 1904/1910 4000 +RADZ BKN004
TEMPO 1908/1912 21016G26KT
BECMG 1910/1912 SCT025
ATIS : +44 1275 473 666
Pas de NOTAMs connus pour ce terrain.



MET'MAP, la Météo Aéronautique d'un coup d'oeil ! - Copyright ORBIFLY Décembre 2007 - Disclaimer

ORBIFLY MET'MAP TEAM :

Programmation & Développement : Alexandra Zaïnal
Conception & Développement : Baudouin d'Aumeries
Co-Programmation & Développement : Marc-Olivier Méhu
Soutien technique & logistique : Manuel Goepfert

Contact : metmap@orbifly.com




SOURCES & CREDITS :

   NOAA